sensor_id;sensor_type;location;lat;lon;timestamp;pressure;altitude;pressure_sealevel;temperature;humidity
75089;BME280;63673;49.928;8.150;2024-01-15T00:00:19;979.85;;;-3.71;100
75089;BME280;63673;49.928;8.150;2024-01-15T00:01:21;979.89;;;-3.72;100
75089;BME280;63673;49.928;8.150;2024-01-15T00:02:23;979.91;;;-3.71;100
75089;BME280;63673;49.928;8.150;2024-01-15T00:03:25;979.9;;;-3.71;100
75089;BME280;63673;49.928;8.150;2024-01-15T00:04:26;979.88;;;-3.72;100
75089;BME280;63673;49.928;8.150;2024-01-15T00:05:28;979.95;;;-3.71;100
75089;BME280;63673;49.928;8.150;2024-01-15T00:06:30;979.93;;;-3.72;100
75089;BME280;63673;49.928;8.150;2024-01-15T00:07:31;979.93;;;-3.7;100
75089;BME280;63673;49.928;8.150;2024-01-15T00:08:33;979.9;;;-3.71;100
75089;BME280;63673;49.928;8.150;2024-01-15T00:09:35;979.87;;;-3.7;100
75089;BME280;63673;49.928;8.150;2024-01-15T00:10:37;979.97;;;-3.7;100
75089;BME280;63673;49.928;8.150;2024-01-15T00:11:38;979.93;;;-3.69;100
75089;BME280;63673;49.928;8.150;2024-01-15T00:12:40;979.96;;;-3.69;100
75089;BME280;63673;49.928;8.150;2024-01-15T00:13:42;979.96;;;-3.68;100
75089;BME280;63673;49.928;8.150;2024-01-15T00:14:43;979.99;;;-3.67;100
75089;BME280;63673;49.928;8.150;2024-01-15T00:15:45;979.96;;;-3.66;100
75089;BME280;63673;49.928;8.150;2024-01-15T00:16:47;979.94;;;-3.66;100
75089;BME280;63673;49.928;8.150;2024-01-15T00:17:49;979.96;;;-3.66;100
75089;BME280;63673;49.928;8.150;2024-01-15T00:18:50;979.91;;;-3.65;100
75089;BME280;63673;49.928;8.150;2024-01-15T00:19:52;980.02;;;-3.65;100
75089;BME280;63673;49.928;8.150;2024-01-15T00:20:54;979.89;;;-3.65;100
75089;BME280;63673;49.928;8.150;2024-01-15T00:21:56;979.86;;;-3.65;100
75089;BME280;63673;49.928;8.150;2024-01-15T00:22:57;979.85;;;-3.65;100
75089;BME280;63673;49.928;8.150;2024-01-15T00:23:59;979.87;;;-3.66;100
75089;BME280;63673;49.928;8.150;2024-01-15T00:25:01;979.86;;;-3.65;100
75089;BME280;63673;49.928;8.150;2024-01-15T00:26:02;979.88;;;-3.66;100
75089;BME280;63673;49.928;8.150;2024-01-15T00:27:04;979.79;;;-3.66;100
75089;BME280;63673;49.928;8.150;2024-01-15T00:28:06;979.82;;;-3.67;100
75089;BME280;63673;49.928;8.150;2024-01-15T00:29:08;979.79;;;-3.67;100
75089;BME280;63673;49.928;8.150;2024-01-15T00:30:10;979.83;;;-3.66;100
75089;BME280;63673;49.928;8.150;2024-01-15T00:31:11;979.8;;;-3.66;100
75089;BME280;63673;49.928;8.150;2024-01-15T00:32:13;979.84;;;-3.66;100
75089;BME280;63673;49.928;8.150;2024-01-15T00:33:15;979.8;;;-3.66;100
75089;BME280;63673;49.928;8.150;2024-01-15T00:34:16;979.82;;;-3.65;100
75089;BME280;63673;49.928;8.150;2024-01-15T00:35:18;979.81;;;-3.65;100
75089;BME280;63673;49.928;8.150;2024-01-15T00:36:20;979.76;;;-3.65;100
75089;BME280;63673;49.928;8.150;2024-01-15T00:37:22;979.74;;;-3.64;100
75089;BME280;63673;49.928;8.150;2024-01-15T00:38:23;979.71;;;-3.63;100
75089;BME280;63673;49.928;8.150;2024-01-15T00:39:25;979.69;;;-3.63;100
75089;BME280;63673;49.928;8.150;2024-01-15T00:40:27;979.7;;;-3.62;100
75089;BME280;63673;49.928;8.150;2024-01-15T00:41:28;979.7;;;-3.63;100
75089;BME280;63673;49.928;8.150;2024-01-15T00:42:30;979.67;;;-3.62;100
75089;BME280;63673;49.928;8.150;2024-01-15T00:43:32;979.69;;;-3.63;100
75089;BME280;63673;49.928;8.150;2024-01-15T00:44:34;979.67;;;-3.61;100
75089;BME280;63673;49.928;8.150;2024-01-15T00:45:35;979.7;;;-3.61;100
75089;BME280;63673;49.928;8.150;2024-01-15T00:46:41;979.63;;;-3.61;100
75089;BME280;63673;49.928;8.150;2024-01-15T00:47:39;979.68;;;-3.61;100
75089;BME280;63673;49.928;8.150;2024-01-15T00:48:41;979.67;;;-3.61;100
75089;BME280;63673;49.928;8.150;2024-01-15T00:49:42;979.66;;;-3.62;100
75089;BME280;63673;49.928;8.150;2024-01-15T00:50:44;979.61;;;-3.6;100
75089;BME280;63673;49.928;8.150;2024-01-15T00:51:46;979.6;;;-3.61;100
75089;BME280;63673;49.928;8.150;2024-01-15T00:52:48;979.75;;;-3.61;100
75089;BME280;63673;49.928;8.150;2024-01-15T00:53:49;979.65;;;-3.62;100
75089;BME280;63673;49.928;8.150;2024-01-15T00:54:51;979.64;;;-3.61;100
75089;BME280;63673;49.928;8.150;2024-01-15T00:55:53;979.71;;;-3.62;100
75089;BME280;63673;49.928;8.150;2024-01-15T00:56:54;979.73;;;-3.63;100
75089;BME280;63673;49.928;8.150;2024-01-15T00:57:56;979.66;;;-3.64;100
75089;BME280;63673;49.928;8.150;2024-01-15T00:58:58;979.64;;;-3.65;100
75089;BME280;63673;49.928;8.150;2024-01-15T01:00:00;979.65;;;-3.64;100
75089;BME280;63673;49.928;8.150;2024-01-15T01:01:01;979.72;;;-3.66;100
75089;BME280;63673;49.928;8.150;2024-01-15T01:02:03;979.68;;;-3.65;100
75089;BME280;63673;49.928;8.150;2024-01-15T01:03:05;979.62;;;-3.66;100
75089;BME280;63673;49.928;8.150;2024-01-15T01:04:07;979.64;;;-3.66;100
75089;BME280;63673;49.928;8.150;2024-01-15T01:05:08;979.63;;;-3.68;100
75089;BME280;63673;49.928;8.150;2024-01-15T01:06:10;979.64;;;-3.67;100
75089;BME280;63673;49.928;8.150;2024-01-15T01:07:12;979.61;;;-3.67;100
75089;BME280;63673;49.928;8.150;2024-01-15T01:08:13;979.58;;;-3.67;100
75089;BME280;63673;49.928;8.150;2024-01-15T01:09:15;979.58;;;-3.68;100
75089;BME280;63673;49.928;8.150;2024-01-15T01:10:17;979.54;;;-3.68;100
75089;BME280;63673;49.928;8.150;2024-01-15T01:11:19;979.54;;;-3.7;100
75089;BME280;63673;49.928;8.150;2024-01-15T01:12:20;979.61;;;-3.68;100
75089;BME280;63673;49.928;8.150;2024-01-15T01:13:22;979.7;;;-3.69;100
75089;BME280;63673;49.928;8.150;2024-01-15T01:14:24;979.6;;;-3.68;100
75089;BME280;63673;49.928;8.150;2024-01-15T01:15:26;979.55;;;-3.69;100
75089;BME280;63673;49.928;8.150;2024-01-15T01:16:27;979.55;;;-3.68;100
75089;BME280;63673;49.928;8.150;2024-01-15T01:17:34;979.57;;;-3.68;100
75089;BME280;63673;49.928;8.150;2024-01-15T01:18:36;979.55;;;-3.68;100
75089;BME280;63673;49.928;8.150;2024-01-15T01:19:38;979.63;;;-3.68;100
75089;BME280;63673;49.928;8.150;2024-01-15T01:20:40;979.57;;;-3.67;100
75089;BME280;63673;49.928;8.150;2024-01-15T01:21:41;979.6;;;-3.67;100
75089;BME280;63673;49.928;8.150;2024-01-15T01:22:43;979.65;;;-3.66;100
75089;BME280;63673;49.928;8.150;2024-01-15T01:23:45;979.61;;;-3.66;100
75089;BME280;63673;49.928;8.150;2024-01-15T01:24:46;979.6;;;-3.65;100
75089;BME280;63673;49.928;8.150;2024-01-15T01:25:48;979.63;;;-3.65;100
75089;BME280;63673;49.928;8.150;2024-01-15T01:26:50;979.59;;;-3.66;100
75089;BME280;63673;49.928;8.150;2024-01-15T01:27:51;979.58;;;-3.65;100
75089;BME280;63673;49.928;8.150;2024-01-15T01:28:53;979.55;;;-3.65;100
75089;BME280;63673;49.928;8.150;2024-01-15T01:29:55;979.47;;;-3.65;100
75089;BME280;63673;49.928;8.150;2024-01-15T01:30:57;979.5;;;-3.64;100
75089;BME280;63673;49.928;8.150;2024-01-15T01:31:58;979.53;;;-3.65;100
75089;BME280;63673;49.928;8.150;2024-01-15T01:33:00;979.51;;;-3.63;100
75089;BME280;63673;49.928;8.150;2024-01-15T01:34:02;979.53;;;-3.63;100
75089;BME280;63673;49.928;8.150;2024-01-15T01:35:04;979.49;;;-3.63;100
75089;BME280;63673;49.928;8.150;2024-01-15T01:36:07;979.53;;;-3.62;100
75089;BME280;63673;49.928;8.150;2024-01-15T01:37:07;979.57;;;-3.61;100
75089;BME280;63673;49.928;8.150;2024-01-15T01:38:09;979.57;;;-3.61;100
75089;BME280;63673;49.928;8.150;2024-01-15T01:39:11;979.45;;;-3.59;100
75089;BME280;63673;49.928;8.150;2024-01-15T01:40:12;979.46;;;-3.58;100
75089;BME280;63673;49.928;8.150;2024-01-15T01:41:14;979.45;;;-3.56;100
75089;BME280;63673;49.928;8.150;2024-01-15T01:42:16;979.55;;;-3.55;100
75089;BME280;63673;49.928;8.150;2024-01-15T01:43:18;979.57;;;-3.53;100
75089;BME280;63673;49.928;8.150;2024-01-15T01:44:19;979.54;;;-3.53;100
75089;BME280;63673;49.928;8.150;2024-01-15T01:45:21;979.55;;;-3.51;100
75089;BME280;63673;49.928;8.150;2024-01-15T01:46:23;979.56;;;-3.49;100
75089;BME280;63673;49.928;8.150;2024-01-15T01:47:24;979.6;;;-3.47;100
75089;BME280;63673;49.928;8.150;2024-01-15T01:48:26;979.56;;;-3.46;100
75089;BME280;63673;49.928;8.150;2024-01-15T01:49:28;979.57;;;-3.43;100
75089;BME280;63673;49.928;8.150;2024-01-15T01:50:30;979.57;;;-3.42;100
75089;BME280;63673;49.928;8.150;2024-01-15T01:51:31;979.53;;;-3.4;100
75089;BME280;63673;49.928;8.150;2024-01-15T01:52:33;979.64;;;-3.4;100
75089;BME280;63673;49.928;8.150;2024-01-15T01:53:35;979.67;;;-3.38;100
75089;BME280;63673;49.928;8.150;2024-01-15T01:54:37;979.65;;;-3.36;100
75089;BME280;63673;49.928;8.150;2024-01-15T01:55:38;979.61;;;-3.36;100
75089;BME280;63673;49.928;8.150;2024-01-15T01:56:40;979.65;;;-3.35;100
75089;BME280;63673;49.928;8.150;2024-01-15T01:57:42;979.65;;;-3.35;100
75089;BME280;63673;49.928;8.150;2024-01-15T01:58:44;979.69;;;-3.35;100
75089;BME280;63673;49.928;8.150;2024-01-15T01:59:45;979.6;;;-3.35;100
75089;BME280;63673;49.928;8.150;2024-01-15T02:00:47;979.68;;;-3.35;100
75089;BME280;63673;49.928;8.150;2024-01-15T02:01:49;979.68;;;-3.33;100
75089;BME280;63673;49.928;8.150;2024-01-15T02:02:50;979.59;;;-3.33;100
75089;BME280;63673;49.928;8.150;2024-01-15T02:03:52;979.61;;;-3.32;100
75089;BME280;63673;49.928;8.150;2024-01-15T02:04:54;979.64;;;-3.32;100
75089;BME280;63673;49.928;8.150;2024-01-15T02:05:56;979.6;;;-3.32;100
75089;BME280;63673;49.928;8.150;2024-01-15T02:06:58;979.64;;;-3.3;100
75089;BME280;63673;49.928;8.150;2024-01-15T02:07:59;979.66;;;-3.3;100
75089;BME280;63673;49.928;8.150;2024-01-15T02:09:01;979.65;;;-3.29;100
75089;BME280;63673;49.928;8.150;2024-01-15T02:10:03;979.61;;;-3.29;100
75089;BME280;63673;49.928;8.150;2024-01-15T02:11:04;979.63;;;-3.28;100
75089;BME280;63673;49.928;8.150;2024-01-15T02:12:06;979.6;;;-3.28;100
75089;BME280;63673;49.928;8.150;2024-01-15T02:13:08;979.57;;;-3.27;100
75089;BME280;63673;49.928;8.150;2024-01-15T02:14:09;979.6;;;-3.26;100
75089;BME280;63673;49.928;8.150;2024-01-15T02:15:11;979.6;;;-3.25;100
75089;BME280;63673;49.928;8.150;2024-01-15T02:16:13;979.58;;;-3.25;100
75089;BME280;63673;49.928;8.150;2024-01-15T02:17:15;979.59;;;-3.24;100
75089;BME280;63673;49.928;8.150;2024-01-15T02:18:17;979.62;;;-3.23;100
75089;BME280;63673;49.928;8.150;2024-01-15T02:19:18;979.64;;;-3.23;100
75089;BME280;63673;49.928;8.150;2024-01-15T02:20:20;979.56;;;-3.22;100
75089;BME280;63673;49.928;8.150;2024-01-15T02:21:22;979.55;;;-3.23;100
75089;BME280;63673;49.928;8.150;2024-01-15T02:22:23;979.57;;;-3.21;100
75089;BME280;63673;49.928;8.150;2024-01-15T02:23:25;979.54;;;-3.22;100
75089;BME280;63673;49.928;8.150;2024-01-15T02:24:27;979.52;;;-3.21;100
75089;BME280;63673;49.928;8.150;2024-01-15T02:25:29;979.53;;;-3.2;100
75089;BME280;63673;49.928;8.150;2024-01-15T02:26:30;979.45;;;-3.2;100
75089;BME280;63673;49.928;8.150;2024-01-15T02:27:32;979.53;;;-3.2;100
75089;BME280;63673;49.928;8.150;2024-01-15T02:28:34;979.48;;;-3.19;100
75089;BME280;63673;49.928;8.150;2024-01-15T02:29:35;979.47;;;-3.19;100
75089;BME280;63673;49.928;8.150;2024-01-15T02:30:38;979.48;;;-3.18;100
75089;BME280;63673;49.928;8.150;2024-01-15T02:31:39;979.54;;;-3.18;100
75089;BME280;63673;49.928;8.150;2024-01-15T02:32:41;979.5;;;-3.18;100
75089;BME280;63673;49.928;8.150;2024-01-15T02:33:42;979.51;;;-3.19;100
75089;BME280;63673;49.928;8.150;2024-01-15T02:34:44;979.48;;;-3.17;100
75089;BME280;63673;49.928;8.150;2024-01-15T02:35:46;979.47;;;-3.18;100
75089;BME280;63673;49.928;8.150;2024-01-15T02:36:48;979.45;;;-3.18;100
75089;BME280;63673;49.928;8.150;2024-01-15T02:37:49;979.52;;;-3.17;100
75089;BME280;63673;49.928;8.150;2024-01-15T02:38:51;979.47;;;-3.17;100
75089;BME280;63673;49.928;8.150;2024-01-15T02:39:53;979.41;;;-3.17;100
75089;BME280;63673;49.928;8.150;2024-01-15T02:40:55;979.46;;;-3.17;100
75089;BME280;63673;49.928;8.150;2024-01-15T02:41:56;979.41;;;-3.16;100
75089;BME280;63673;49.928;8.150;2024-01-15T02:42:58;979.4;;;-3.15;100
75089;BME280;63673;49.928;8.150;2024-01-15T02:44:00;979.4;;;-3.16;100
75089;BME280;63673;49.928;8.150;2024-01-15T02:45:02;979.41;;;-3.15;100
75089;BME280;63673;49.928;8.150;2024-01-15T02:46:03;979.41;;;-3.15;100
75089;BME280;63673;49.928;8.150;2024-01-15T02:47:05;979.42;;;-3.14;100
75089;BME280;63673;49.928;8.150;2024-01-15T02:48:07;979.37;;;-3.14;100
75089;BME280;63673;49.928;8.150;2024-01-15T02:49:08;979.37;;;-3.14;100
75089;BME280;63673;49.928;8.150;2024-01-15T02:50:10;979.42;;;-3.12;100
75089;BME280;63673;49.928;8.150;2024-01-15T02:51:12;979.42;;;-3.13;100
75089;BME280;63673;49.928;8.150;2024-01-15T02:52:14;979.42;;;-3.11;100
75089;BME280;63673;49.928;8.150;2024-01-15T02:53:15;979.43;;;-3.11;100
75089;BME280;63673;49.928;8.150;2024-01-15T02:54:17;979.4;;;-3.1;100
75089;BME280;63673;49.928;8.150;2024-01-15T02:55:19;979.39;;;-3.1;100
75089;BME280;63673;49.928;8.150;2024-01-15T02:56:21;979.44;;;-3.11;100
75089;BME280;63673;49.928;8.150;2024-01-15T02:57:22;979.47;;;-3.1;100
75089;BME280;63673;49.928;8.150;2024-01-15T02:58:24;979.44;;;-3.1;100
75089;BME280;63673;49.928;8.150;2024-01-15T02:59:26;979.43;;;-3.09;100
75089;BME280;63673;49.928;8.150;2024-01-15T03:00:28;979.42;;;-3.09;100
75089;BME280;63673;49.928;8.150;2024-01-15T03:01:30;979.39;;;-3.09;100
75089;BME280;63673;49.928;8.150;2024-01-15T03:02:31;979.42;;;-3.1;100
75089;BME280;63673;49.928;8.150;2024-01-15T03:03:33;979.43;;;-3.09;100
75089;BME280;63673;49.928;8.150;2024-01-15T03:04:35;979.41;;;-3.09;100
75089;BME280;63673;49.928;8.150;2024-01-15T03:05:37;979.47;;;-3.1;100
75089;BME280;63673;49.928;8.150;2024-01-15T03:06:38;979.46;;;-3.09;100
75089;BME280;63673;49.928;8.150;2024-01-15T03:07:40;979.43;;;-3.09;100
75089;BME280;63673;49.928;8.150;2024-01-15T03:08:41;979.44;;;-3.09;100
75089;BME280;63673;49.928;8.150;2024-01-15T03:09:43;979.42;;;-3.08;100
75089;BME280;63673;49.928;8.150;2024-01-15T03:10:45;979.47;;;-3.09;100
75089;BME280;63673;49.928;8.150;2024-01-15T03:11:47;979.46;;;-3.08;100
75089;BME280;63673;49.928;8.150;2024-01-15T03:12:48;979.46;;;-3.08;100
75089;BME280;63673;49.928;8.150;2024-01-15T03:13:50;979.49;;;-3.08;100
75089;BME280;63673;49.928;8.150;2024-01-15T03:14:52;979.41;;;-3.08;100
75089;BME280;63673;49.928;8.150;2024-01-15T03:15:53;979.43;;;-3.09;100
75089;BME280;63673;49.928;8.150;2024-01-15T03:16:55;979.37;;;-3.08;100
75089;BME280;63673;49.928;8.150;2024-01-15T03:17:57;979.4;;;-3.08;100
75089;BME280;63673;49.928;8.150;2024-01-15T03:18:59;979.39;;;-3.09;100
75089;BME280;63673;49.928;8.150;2024-01-15T03:20:01;979.31;;;-3.09;100
75089;BME280;63673;49.928;8.150;2024-01-15T03:21:02;979.37;;;-3.09;100
75089;BME280;63673;49.928;8.150;2024-01-15T03:22:04;979.33;;;-3.09;100
75089;BME280;63673;49.928;8.150;2024-01-15T03:23:06;979.46;;;-3.08;100
75089;BME280;63673;49.928;8.150;2024-01-15T03:24:07;979.44;;;-3.1;100
75089;BME280;63673;49.928;8.150;2024-01-15T03:25:09;979.44;;;-3.09;100
75089;BME280;63673;49.928;8.150;2024-01-15T03:26:11;979.46;;;-3.1;100
75089;BME280;63673;49.928;8.150;2024-01-15T03:27:13;979.47;;;-3.1;100
75089;BME280;63673;49.928;8.150;2024-01-15T03:28:14;979.45;;;-3.1;100
75089;BME280;63673;49.928;8.150;2024-01-15T03:29:16;979.45;;;-3.11;100
75089;BME280;63673;49.928;8.150;2024-01-15T03:30:18;979.46;;;-3.11;100
75089;BME280;63673;49.928;8.150;2024-01-15T03:31:19;979.44;;;-3.11;100
75089;BME280;63673;49.928;8.150;2024-01-15T03:32:21;979.44;;;-3.11;100
75089;BME280;63673;49.928;8.150;2024-01-15T03:33:23;979.46;;;-3.1;100
75089;BME280;63673;49.928;8.150;2024-01-15T03:34:25;979.46;;;-3.1;100
75089;BME280;63673;49.928;8.150;2024-01-15T03:35:27;979.45;;;-3.1;100
75089;BME280;63673;49.928;8.150;2024-01-15T03:36:28;979.42;;;-3.11;100
75089;BME280;63673;49.928;8.150;2024-01-15T03:37:30;979.41;;;-3.1;100
75089;BME280;63673;49.928;8.150;2024-01-15T03:38:32;979.4;;;-3.09;100
75089;BME280;63673;49.928;8.150;2024-01-15T03:39:33;979.41;;;-3.09;100
75089;BME280;63673;49.928;8.150;2024-01-15T03:40:35;979.37;;;-3.1;100
75089;BME280;63673;49.928;8.150;2024-01-15T03:41:37;979.37;;;-3.09;100
75089;BME280;63673;49.928;8.150;2024-01-15T03:42:39;979.37;;;-3.08;100
75089;BME280;63673;49.928;8.150;2024-01-15T03:43:40;979.36;;;-3.09;100
75089;BME280;63673;49.928;8.150;2024-01-15T03:44:42;979.39;;;-3.09;100
75089;BME280;63673;49.928;8.150;2024-01-15T03:45:44;979.36;;;-3.08;100
75089;BME280;63673;49.928;8.150;2024-01-15T03:46:46;979.33;;;-3.07;100
75089;BME280;63673;49.928;8.150;2024-01-15T03:47:47;979.38;;;-3.08;100
75089;BME280;63673;49.928;8.150;2024-01-15T03:48:49;979.32;;;-3.07;100
75089;BME280;63673;49.928;8.150;2024-01-15T03:49:51;979.38;;;-3.06;100
75089;BME280;63673;49.928;8.150;2024-01-15T03:50:53;979.28;;;-3.06;100
75089;BME280;63673;49.928;8.150;2024-01-15T03:51:54;979.34;;;-3.05;100
75089;BME280;63673;49.928;8.150;2024-01-15T03:52:56;979.32;;;-3.05;100
75089;BME280;63673;49.928;8.150;2024-01-15T03:53:58;979.26;;;-3.05;100
75089;BME280;63673;49.928;8.150;2024-01-15T03:54:59;979.33;;;-3.06;100
75089;BME280;63673;49.928;8.150;2024-01-15T03:56:01;979.23;;;-3.04;100
75089;BME280;63673;49.928;8.150;2024-01-15T03:57:03;979.22;;;-3.05;100
75089;BME280;63673;49.928;8.150;2024-01-15T03:58:05;979.18;;;-3.05;100
75089;BME280;63673;49.928;8.150;2024-01-15T03:59:06;979.21;;;-3.05;100
75089;BME280;63673;49.928;8.150;2024-01-15T04:00:08;979.17;;;-3.04;100
75089;BME280;63673;49.928;8.150;2024-01-15T04:01:10;979.21;;;-3.04;100
75089;BME280;63673;49.928;8.150;2024-01-15T04:02:11;979.13;;;-3.04;100
75089;BME280;63673;49.928;8.150;2024-01-15T04:03:13;979.17;;;-3.02;100
75089;BME280;63673;49.928;8.150;2024-01-15T04:04:15;979.16;;;-3.03;100
75089;BME280;63673;49.928;8.150;2024-01-15T04:05:17;979.13;;;-3.02;100
75089;BME280;63673;49.928;8.150;2024-01-15T04:06:18;979.16;;;-3.02;100
75089;BME280;63673;49.928;8.150;2024-01-15T04:07:20;979.1;;;-3.02;100
75089;BME280;63673;49.928;8.150;2024-01-15T04:08:22;979.2;;;-3;100
75089;BME280;63673;49.928;8.150;2024-01-15T04:09:24;979.16;;;-3;100
75089;BME280;63673;49.928;8.150;2024-01-15T04:10:25;979.15;;;-2.99;100
75089;BME280;63673;49.928;8.150;2024-01-15T04:11:27;979.16;;;-2.99;100
75089;BME280;63673;49.928;8.150;2024-01-15T04:12:29;979.14;;;-2.99;100
75089;BME280;63673;49.928;8.150;2024-01-15T04:13:32;979.16;;;-2.98;100
75089;BME280;63673;49.928;8.150;2024-01-15T04:14:32;979.11;;;-2.99;100
75089;BME280;63673;49.928;8.150;2024-01-15T04:15:34;979.14;;;-2.98;100
75089;BME280;63673;49.928;8.150;2024-01-15T04:16:36;979.12;;;-2.98;100
75089;BME280;63673;49.928;8.150;2024-01-15T04:17:37;979.17;;;-2.97;100
75089;BME280;63673;49.928;8.150;2024-01-15T04:18:39;979.15;;;-2.96;100
75089;BME280;63673;49.928;8.150;2024-01-15T04:19:43;979.09;;;-2.97;100
75089;BME280;63673;49.928;8.150;2024-01-15T04:20:43;979.13;;;-2.95;100
75089;BME280;63673;49.928;8.150;2024-01-15T04:21:44;979.15;;;-2.96;100
75089;BME280;63673;49.928;8.150;2024-01-15T04:22:46;979.12;;;-2.95;100
75089;BME280;63673;49.928;8.150;2024-01-15T04:23:48;979.13;;;-2.94;100
75089;BME280;63673;49.928;8.150;2024-01-15T04:24:50;979.13;;;-2.94;100
75089;BME280;63673;49.928;8.150;2024-01-15T04:25:51;979.19;;;-2.94;100
75089;BME280;63673;49.928;8.150;2024-01-15T04:26:53;979.14;;;-2.93;100
75089;BME280;63673;49.928;8.150;2024-01-15T04:27:55;979.11;;;-2.92;100
75089;BME280;63673;49.928;8.150;2024-01-15T04:28:57;979.13;;;-2.93;100
75089;BME280;63673;49.928;8.150;2024-01-15T04:29:58;979.09;;;-2.93;100
75089;BME280;63673;49.928;8.150;2024-01-15T04:31:00;979.1;;;-2.93;100
75089;BME280;63673;49.928;8.150;2024-01-15T04:32:02;979.11;;;-2.93;100
75089;BME280;63673;49.928;8.150;2024-01-15T04:33:04;979.05;;;-2.92;100
75089;BME280;63673;49.928;8.150;2024-01-15T04:34:05;979.11;;;-2.92;100
75089;BME280;63673;49.928;8.150;2024-01-15T04:35:07;979.06;;;-2.91;100
75089;BME280;63673;49.928;8.150;2024-01-15T04:36:09;979.12;;;-2.91;100
75089;BME280;63673;49.928;8.150;2024-01-15T04:37:10;979.15;;;-2.91;100
75089;BME280;63673;49.928;8.150;2024-01-15T04:38:12;979.13;;;-2.92;100
75089;BME280;63673;49.928;8.150;2024-01-15T04:39:14;979.04;;;-2.91;100
75089;BME280;63673;49.928;8.150;2024-01-15T04:40:16;979.04;;;-2.91;100
75089;BME280;63673;49.928;8.150;2024-01-15T04:41:17;978.98;;;-2.9;100
75089;BME280;63673;49.928;8.150;2024-01-15T04:42:19;979;;;-2.89;100
75089;BME280;63673;49.928;8.150;2024-01-15T04:43:21;978.99;;;-2.89;100
75089;BME280;63673;49.928;8.150;2024-01-15T04:44:22;978.96;;;-2.88;100
75089;BME280;63673;49.928;8.150;2024-01-15T04:45:24;978.99;;;-2.87;100
75089;BME280;63673;49.928;8.150;2024-01-15T04:46:26;978.97;;;-2.88;100
75089;BME280;63673;49.928;8.150;2024-01-15T04:47:28;979;;;-2.87;100
75089;BME280;63673;49.928;8.150;2024-01-15T04:48:29;979.01;;;-2.86;100
75089;BME280;63673;49.928;8.150;2024-01-15T04:49:31;978.99;;;-2.86;100
75089;BME280;63673;49.928;8.150;2024-01-15T04:50:33;979.01;;;-2.86;100
75089;BME280;63673;49.928;8.150;2024-01-15T04:51:35;978.89;;;-2.86;100
75089;BME280;63673;49.928;8.150;2024-01-15T04:52:36;978.96;;;-2.84;100
75089;BME280;63673;49.928;8.150;2024-01-15T04:53:38;978.93;;;-2.84;100
75089;BME280;63673;49.928;8.150;2024-01-15T04:54:40;978.96;;;-2.83;100
75089;BME280;63673;49.928;8.150;2024-01-15T04:55:42;978.83;;;-2.83;100
75089;BME280;63673;49.928;8.150;2024-01-15T04:56:43;978.88;;;-2.82;100
75089;BME280;63673;49.928;8.150;2024-01-15T04:57:45;978.86;;;-2.82;100
75089;BME280;63673;49.928;8.150;2024-01-15T04:58:47;978.83;;;-2.82;100
75089;BME280;63673;49.928;8.150;2024-01-15T04:59:49;978.8;;;-2.82;100
75089;BME280;63673;49.928;8.150;2024-01-15T05:00:50;978.78;;;-2.82;100
75089;BME280;63673;49.928;8.150;2024-01-15T05:01:52;978.86;;;-2.83;100
75089;BME280;63673;49.928;8.150;2024-01-15T05:02:54;978.78;;;-2.82;100
75089;BME280;63673;49.928;8.150;2024-01-15T05:03:55;978.81;;;-2.82;100
75089;BME280;63673;49.928;8.150;2024-01-15T05:04:57;978.84;;;-2.83;100
75089;BME280;63673;49.928;8.150;2024-01-15T05:05:59;978.75;;;-2.82;100
75089;BME280;63673;49.928;8.150;2024-01-15T05:07:01;978.79;;;-2.84;100
75089;BME280;63673;49.928;8.150;2024-01-15T05:08:02;978.79;;;-2.83;100
75089;BME280;63673;49.928;8.150;2024-01-15T05:09:04;978.79;;;-2.83;100
75089;BME280;63673;49.928;8.150;2024-01-15T05:10:06;978.82;;;-2.84;100
75089;BME280;63673;49.928;8.150;2024-01-15T05:11:07;978.83;;;-2.84;100
75089;BME280;63673;49.928;8.150;2024-01-15T05:12:09;978.82;;;-2.85;100
75089;BME280;63673;49.928;8.150;2024-01-15T05:13:11;978.78;;;-2.84;100
75089;BME280;63673;49.928;8.150;2024-01-15T05:14:13;978.78;;;-2.84;100
75089;BME280;63673;49.928;8.150;2024-01-15T05:15:14;978.75;;;-2.84;100
75089;BME280;63673;49.928;8.150;2024-01-15T05:16:16;978.78;;;-2.84;100
75089;BME280;63673;49.928;8.150;2024-01-15T05:17:18;978.77;;;-2.83;100
75089;BME280;63673;49.928;8.150;2024-01-15T05:18:20;978.78;;;-2.84;100
75089;BME280;63673;49.928;8.150;2024-01-15T05:19:21;978.78;;;-2.83;100
75089;BME280;63673;49.928;8.150;2024-01-15T05:20:23;978.74;;;-2.84;100
75089;BME280;63673;49.928;8.150;2024-01-15T05:21:25;978.71;;;-2.83;100
75089;BME280;63673;49.928;8.150;2024-01-15T05:22:27;978.74;;;-2.83;100
75089;BME280;63673;49.928;8.150;2024-01-15T05:23:28;978.79;;;-2.83;100
75089;BME280;63673;49.928;8.150;2024-01-15T05:24:30;978.71;;;-2.83;100
75089;BME280;63673;49.928;8.150;2024-01-15T05:25:32;978.71;;;-2.82;100
75089;BME280;63673;49.928;8.150;2024-01-15T05:26:34;978.69;;;-2.82;100
75089;BME280;63673;49.928;8.150;2024-01-15T05:27:35;978.66;;;-2.81;100
75089;BME280;63673;49.928;8.150;2024-01-15T05:28:37;978.71;;;-2.81;100
75089;BME280;63673;49.928;8.150;2024-01-15T05:29:39;978.68;;;-2.81;100
75089;BME280;63673;49.928;8.150;2024-01-15T05:30:40;978.62;;;-2.79;100
75089;BME280;63673;49.928;8.150;2024-01-15T05:31:42;978.69;;;-2.79;100
75089;BME280;63673;49.928;8.150;2024-01-15T05:32:44;978.71;;;-2.78;100
75089;BME280;63673;49.928;8.150;2024-01-15T05:33:46;978.69;;;-2.78;100
75089;BME280;63673;49.928;8.150;2024-01-15T05:34:47;978.68;;;-2.78;100
75089;BME280;63673;49.928;8.150;2024-01-15T05:35:49;978.7;;;-2.77;100
75089;BME280;63673;49.928;8.150;2024-01-15T05:36:51;978.72;;;-2.77;100
75089;BME280;63673;49.928;8.150;2024-01-15T05:37:53;978.73;;;-2.76;100
75089;BME280;63673;49.928;8.150;2024-01-15T05:38:54;978.76;;;-2.75;100
75089;BME280;63673;49.928;8.150;2024-01-15T05:39:56;978.79;;;-2.75;100
75089;BME280;63673;49.928;8.150;2024-01-15T05:40:58;978.81;;;-2.74;100
75089;BME280;63673;49.928;8.150;2024-01-15T05:41:59;978.79;;;-2.74;100
75089;BME280;63673;49.928;8.150;2024-01-15T05:43:01;978.79;;;-2.73;100
75089;BME280;63673;49.928;8.150;2024-01-15T05:44:03;978.8;;;-2.72;100
75089;BME280;63673;49.928;8.150;2024-01-15T05:45:05;978.81;;;-2.71;100
75089;BME280;63673;49.928;8.150;2024-01-15T05:46:06;978.77;;;-2.71;100